createdAt,value
2019-02-06T00:06:12.440Z,53.4
2019-02-06T00:17:18.083Z,58.6
2019-02-06T00:28:06.894Z,45.8
2019-02-06T00:38:56.993Z,42.5
2019-02-06T00:49:47.172Z,38.0
2019-02-06T01:00:03.284Z,37.9
2019-02-06T01:10:18.961Z,31.4
2019-02-06T01:21:07.215Z,46.5
2019-02-06T01:31:58.774Z,42.1
2019-02-06T01:42:44.424Z,35.6
2019-02-06T01:53:00.961Z,34.3
2019-02-06T02:04:24.565Z,29.6
2019-02-06T02:14:39.059Z,34.4
2019-02-06T02:24:55.767Z,25.5
2019-02-06T02:35:14.362Z,32.1
2019-02-06T02:45:31.087Z,30.1
2019-02-06T02:56:22.022Z,32.2
2019-02-06T03:09:20.535Z,32.7
2019-02-06T03:19:37.475Z,26.8
2019-02-06T03:30:24.462Z,24.8
2019-02-06T03:41:10.519Z,29.9
2019-02-06T03:51:22.037Z,37.1
2019-02-06T04:01:33.461Z,29.6
2019-02-06T04:11:45.390Z,22.2
2019-02-06T04:21:56.972Z,28.2
2019-02-06T04:32:08.003Z,25.2
2019-02-06T04:42:20.361Z,26.3
2019-02-06T04:53:05.374Z,23.6
2019-02-06T05:03:16.565Z,29.4
2019-02-06T05:13:35.619Z,23.4
2019-02-06T05:23:49.983Z,26.8
2019-02-06T05:34:34.778Z,23.8
2019-02-06T05:44:46.185Z,29.8
2019-02-06T05:54:57.504Z,24.8
2019-02-06T06:05:08.671Z,26.2
2019-02-06T06:15:20.353Z,33.2
2019-02-06T06:25:31.369Z,25.8
2019-02-06T06:36:16.182Z,33.4
2019-02-06T06:46:29.404Z,25.3
2019-02-06T06:56:41.004Z,24.4
2019-02-06T07:07:25.552Z,28.5
2019-02-06T07:18:10.122Z,25.1
2019-02-06T07:28:55.198Z,29.5
2019-02-06T07:39:07.361Z,24.8
2019-02-06T07:49:18.876Z,27.1
2019-02-06T07:59:32.189Z,28.3
2019-02-06T08:09:45.238Z,22.6
2019-02-06T08:19:58.479Z,22.4
2019-02-06T08:30:43.285Z,24.3
2019-02-06T08:40:56.779Z,24.2
2019-02-06T08:51:07.608Z,24.2
2019-02-06T09:01:19.303Z,26.9
2019-02-06T09:11:30.566Z,28.0
2019-02-06T09:21:43.701Z,22.7
2019-02-06T09:31:55.507Z,27.8
2019-02-06T09:42:09.696Z,25.5
2019-02-06T09:52:26.593Z,26.3
2019-02-06T10:02:34.810Z,29.1
2019-02-06T10:12:48.162Z,32.3
2019-02-06T10:23:32.655Z,29.6
2019-02-06T10:33:44.198Z,24.9
2019-02-06T10:43:57.394Z,27.1
2019-02-06T10:54:08.583Z,27.0
2019-02-06T11:04:55.264Z,23.3
2019-02-06T11:15:06.795Z,25.5
2019-02-06T11:25:17.928Z,25.4
2019-02-06T11:35:29.384Z,24.9
2019-02-06T11:46:15.753Z,29.9
2019-02-06T11:56:27.180Z,28.5
2019-02-06T12:07:12.025Z,28.1
2019-02-06T12:17:23.160Z,32.1
2019-02-06T12:28:10.191Z,29.3
2019-02-06T12:38:57.127Z,31.0
2019-02-06T12:49:43.507Z,27.8
2019-02-06T13:00:30.812Z,38.6
2019-02-06T13:10:54.368Z,27.8
2019-02-06T13:21:08.344Z,25.1
2019-02-06T13:31:50.971Z,30.6
2019-02-06T13:42:46.046Z,34.9
2019-02-06T13:53:46.435Z,27.6
2019-02-06T14:04:43.476Z,29.5
2019-02-06T14:17:41.112Z,31.0
2019-02-06T14:30:38.825Z,29.8
2019-02-06T14:42:30.789Z,40.9
2019-02-06T14:53:27.886Z,28.9
2019-02-06T15:04:51.452Z,40.2
2019-02-06T15:15:27.227Z,34.0
2019-02-06T15:26:41.959Z,28.7
2019-02-06T15:37:47.003Z,33.0
2019-02-06T15:50:56.794Z,39.7
2019-02-06T16:02:17.537Z,34.4
2019-02-06T16:16:09.140Z,31.1
2019-02-06T16:27:15.070Z,30.6
2019-02-06T16:39:23.342Z,31.4
2019-02-06T16:51:44.222Z,43.2
2019-02-06T17:03:27.022Z,33.1
2019-02-06T17:15:01.494Z,36.4
2019-02-06T17:27:04.965Z,37.6
2019-02-06T17:37:17.134Z,27.6
2019-02-06T17:47:28.901Z,29.1
2019-02-06T22:35:19.078Z,26.9
2019-02-06T23:48:32.409Z,33.4
2019-02-06T23:59:06.840Z,31.2
